createdAt,value
2022-09-27T00:00:30.956Z,100.00
2022-09-27T00:02:59.155Z,100.00
2022-09-27T00:05:28.574Z,100.00
2022-09-27T00:07:57.172Z,100.00
2022-09-27T00:10:25.415Z,100.00
2022-09-27T00:12:54.031Z,100.00
2022-09-27T00:15:22.507Z,100.00
2022-09-27T00:17:51.843Z,100.00
2022-09-27T00:20:21.334Z,100.00
2022-09-27T00:22:51.089Z,100.00
2022-09-27T00:25:18.980Z,100.00
2022-09-27T00:27:47.038Z,100.00
2022-09-27T00:30:15.177Z,100.00
2022-09-27T00:32:43.211Z,100.00
2022-09-27T00:35:11.230Z,100.00
2022-09-27T00:37:39.375Z,100.00
2022-09-27T00:40:09.710Z,100.00
2022-09-27T00:42:37.743Z,100.00
2022-09-27T00:45:18.144Z,100.00
2022-09-27T00:47:53.008Z,100.00
2022-09-27T00:50:33.473Z,100.00
2022-09-27T00:53:11.254Z,100.00
2022-09-27T00:55:44.738Z,100.00
2022-09-27T00:58:14.958Z,100.00
2022-09-27T01:00:46.708Z,100.00
2022-09-27T01:03:23.586Z,100.00
2022-09-27T01:05:52.171Z,100.00
2022-09-27T01:08:20.246Z,100.00
2022-09-27T01:11:01.669Z,100.00
2022-09-27T01:13:38.103Z,100.00
2022-09-27T01:16:14.049Z,100.00
2022-09-27T01:18:58.264Z,100.00
2022-09-27T01:21:45.904Z,100.00
2022-09-27T01:24:49.597Z,100.00
2022-09-27T01:27:50.078Z,100.00
2022-09-27T01:30:24.525Z,100.00
2022-09-27T01:33:07.063Z,100.00
2022-09-27T01:35:41.021Z,100.00
2022-09-27T01:38:18.700Z,100.00
2022-09-27T01:40:53.602Z,100.00
2022-09-27T01:43:47.847Z,100.00
2022-09-27T01:46:24.678Z,100.00
2022-09-27T01:49:18.462Z,100.00
2022-09-27T01:51:53.026Z,100.00
2022-09-27T01:54:28.719Z,100.00
2022-09-27T01:57:21.003Z,100.00
2022-09-27T01:59:54.523Z,100.00
2022-09-27T02:03:00.444Z,100.00
2022-09-27T02:05:35.007Z,100.00
2022-09-27T02:08:29.237Z,100.00
2022-09-27T02:11:03.444Z,100.00
2022-09-27T02:13:38.963Z,100.00
2022-09-27T02:16:35.433Z,100.00
2022-09-27T02:19:11.504Z,100.00
2022-09-27T02:21:45.431Z,100.00
2022-09-27T02:24:18.246Z,100.00
2022-09-27T02:26:50.682Z,100.00
2022-09-27T02:29:24.179Z,100.00
2022-09-27T02:31:54.812Z,100.00
2022-09-27T02:34:27.368Z,100.00
2022-09-27T02:36:56.189Z,100.00
2022-09-27T02:39:25.758Z,100.00
2022-09-27T02:42:06.494Z,100.00
2022-09-27T02:44:35.382Z,100.00
2022-09-27T02:47:25.710Z,100.00
2022-09-27T02:50:17.098Z,100.00
2022-09-27T02:52:57.764Z,100.00
2022-09-27T02:55:47.799Z,100.00
2022-09-27T02:58:55.300Z,100.00
2022-09-27T03:02:07.531Z,100.00
2022-09-27T03:04:55.424Z,100.00
2022-09-27T03:07:25.881Z,100.00
2022-09-27T03:09:56.368Z,100.00
2022-09-27T03:12:26.743Z,100.00
2022-09-27T03:14:57.486Z,100.00
2022-09-27T03:18:04.540Z,100.00
2022-09-27T03:20:50.944Z,100.00
2022-09-27T03:23:22.446Z,100.00
2022-09-27T03:25:51.664Z,100.00
2022-09-27T03:28:20.532Z,100.00
2022-09-27T03:30:49.599Z,100.00
2022-09-27T03:33:40.178Z,100.00
2022-09-27T03:36:12.482Z,100.00
2022-09-27T03:38:42.060Z,100.00
2022-09-27T03:41:13.562Z,100.00
2022-09-27T03:43:42.447Z,100.00
2022-09-27T03:46:10.518Z,100.00
2022-09-27T03:48:39.621Z,100.00
2022-09-27T03:51:08.374Z,100.00
2022-09-27T03:53:36.503Z,100.00
2022-09-27T03:56:07.541Z,100.00
2022-09-27T03:58:35.894Z,100.00
2022-09-27T04:01:04.999Z,100.00
2022-09-27T04:03:36.021Z,100.00
2022-09-27T04:06:25.476Z,100.00
2022-09-27T04:08:54.312Z,100.00
2022-09-27T04:11:26.860Z,100.00
2022-09-27T04:13:56.173Z,100.00
2022-09-27T04:16:25.288Z,100.00
2022-09-27T04:19:09.196Z,100.00
2022-09-27T04:21:40.417Z,100.00
2022-09-27T04:24:11.799Z,100.00
2022-09-27T04:26:42.691Z,100.00
2022-09-27T04:29:15.928Z,100.00
2022-09-27T04:31:50.347Z,100.00
2022-09-27T04:34:58.738Z,100.00
2022-09-27T04:37:28.894Z,100.00
2022-09-27T04:40:03.243Z,100.00
2022-09-27T04:42:33.994Z,100.00
2022-09-27T04:45:02.051Z,100.00
2022-09-27T04:47:30.489Z,100.00
2022-09-27T04:49:58.585Z,100.00
2022-09-27T04:52:26.865Z,100.00
2022-09-27T04:54:54.908Z,100.00
2022-09-27T04:57:23.120Z,100.00
2022-09-27T04:59:52.756Z,100.00
2022-09-27T05:02:20.954Z,100.00
2022-09-27T05:04:59.474Z,100.00
2022-09-27T05:07:35.692Z,100.00
2022-09-27T05:10:10.077Z,100.00
2022-09-27T05:12:38.578Z,100.00
2022-09-27T05:15:09.942Z,100.00
2022-09-27T05:17:41.016Z,100.00
2022-09-27T05:20:38.954Z,100.00
2022-09-27T05:23:15.472Z,100.00
2022-09-27T05:25:43.776Z,100.00
2022-09-27T05:28:12.472Z,100.00
2022-09-27T05:30:42.060Z,100.00
2022-09-27T05:33:16.362Z,100.00
2022-09-27T05:35:47.540Z,100.00
2022-09-27T05:38:15.841Z,100.00
2022-09-27T05:40:50.904Z,100.00
2022-09-27T05:43:19.939Z,100.00
2022-09-27T05:45:50.190Z,100.00
2022-09-27T05:48:20.363Z,100.00
2022-09-27T05:50:57.705Z,100.00
2022-09-27T05:53:26.082Z,100.00
2022-09-27T05:55:55.039Z,100.00
2022-09-27T05:58:31.260Z,100.00
2022-09-27T06:01:12.912Z,100.00
2022-09-27T06:04:00.749Z,100.00
2022-09-27T06:06:38.334Z,100.00
2022-09-27T06:09:11.355Z,100.00
2022-09-27T06:11:43.044Z,100.00
2022-09-27T06:14:14.794Z,100.00
2022-09-27T06:17:08.332Z,100.00
2022-09-27T06:19:40.827Z,100.00
2022-09-27T06:22:09.386Z,100.00
2022-09-27T06:24:48.059Z,100.00
2022-09-27T06:27:21.847Z,100.00
2022-09-27T06:30:14.796Z,100.00
2022-09-27T06:32:58.773Z,100.00
2022-09-27T06:35:32.917Z,100.00
2022-09-27T06:38:04.840Z,100.00
2022-09-27T06:40:33.733Z,100.00
2022-09-27T06:43:11.715Z,100.00
2022-09-27T06:46:06.275Z,100.00
2022-09-27T06:48:55.419Z,100.00
2022-09-27T06:51:23.519Z,100.00
2022-09-27T06:53:51.741Z,100.00
2022-09-27T06:56:20.714Z,100.00
2022-09-27T06:59:10.883Z,100.00
2022-09-27T07:01:45.316Z,100.00
2022-09-27T07:04:33.583Z,100.00
2022-09-27T07:07:16.118Z,100.00
2022-09-27T07:09:49.087Z,100.00
2022-09-27T07:12:17.636Z,100.00
2022-09-27T07:14:45.754Z,100.00
2022-09-27T07:17:16.612Z,100.00
2022-09-27T07:19:51.309Z,100.00
2022-09-27T07:22:19.671Z,100.00
2022-09-27T07:24:53.846Z,100.00
2022-09-27T07:27:24.762Z,100.00
2022-09-27T07:29:52.858Z,100.00
2022-09-27T07:32:21.662Z,100.00
2022-09-27T07:34:51.327Z,100.00
2022-09-27T07:37:19.498Z,100.00
2022-09-27T07:39:48.357Z,100.00
2022-09-27T07:42:16.512Z,100.00
2022-09-27T07:44:48.036Z,100.00
2022-09-27T07:47:29.298Z,100.00
2022-09-27T07:50:11.462Z,100.00
2022-09-27T07:52:50.996Z,100.00
2022-09-27T07:55:37.183Z,100.00
2022-09-27T07:58:12.236Z,100.00
2022-09-27T08:00:41.864Z,100.00
2022-09-27T08:03:15.854Z,100.00
2022-09-27T08:05:47.157Z,100.00
2022-09-27T08:08:16.565Z,100.00
2022-09-27T08:10:46.669Z,100.00
2022-09-27T08:13:19.878Z,100.00
2022-09-27T08:15:52.350Z,100.00
2022-09-27T08:18:21.956Z,100.00
2022-09-27T08:20:58.792Z,100.00
2022-09-27T08:23:50.266Z,100.00
2022-09-27T08:26:25.125Z,100.00
2022-09-27T08:28:56.883Z,100.00
2022-09-27T08:31:29.053Z,100.00
2022-09-27T08:33:58.883Z,100.00
2022-09-27T08:36:30.705Z,100.00
2022-09-27T08:38:59.669Z,100.00
2022-09-27T08:41:39.786Z,100.00
2022-09-27T08:44:17.993Z,100.00
2022-09-27T08:47:12.291Z,100.00
2022-09-27T08:49:44.549Z,100.00
2022-09-27T08:52:19.336Z,100.00
2022-09-27T08:54:50.089Z,100.00
2022-09-27T08:57:18.794Z,100.00
2022-09-27T08:59:57.314Z,100.00
2022-09-27T09:02:26.399Z,100.00
2022-09-27T09:05:00.186Z,100.00
2022-09-27T09:07:42.628Z,100.00
2022-09-27T09:10:41.843Z,100.00
2022-09-27T09:13:19.566Z,100.00
2022-09-27T09:15:58.431Z,100.00
2022-09-27T09:18:42.245Z,100.00
2022-09-27T09:21:25.608Z,100.00
2022-09-27T09:24:14.041Z,100.00
2022-09-27T09:26:51.349Z,100.00
2022-09-27T09:29:33.062Z,100.00
2022-09-27T09:32:11.530Z,100.00
2022-09-27T09:34:44.065Z,100.00
2022-09-27T09:37:17.625Z,100.00
2022-09-27T09:39:52.580Z,100.00
2022-09-27T09:42:26.540Z,100.00
2022-09-27T09:45:00.272Z,100.00
2022-09-27T09:47:37.311Z,100.00
2022-09-27T09:50:19.167Z,100.00
2022-09-27T09:52:51.675Z,100.00
2022-09-27T09:55:25.129Z,100.00
2022-09-27T09:58:02.986Z,100.00
2022-09-27T10:00:41.222Z,100.00
2022-09-27T10:03:09.231Z,100.00
2022-09-27T10:05:37.692Z,100.00
2022-09-27T10:08:17.166Z,100.00
2022-09-27T10:10:47.721Z,100.00
2022-09-27T10:13:42.009Z,100.00
2022-09-27T10:16:12.852Z,100.00
2022-09-27T10:18:49.066Z,100.00
2022-09-27T10:21:23.013Z,100.00
2022-09-27T10:24:06.316Z,100.00
2022-09-27T10:27:02.094Z,100.00
2022-09-27T10:29:37.599Z,100.00
2022-09-27T10:32:23.422Z,100.00
2022-09-27T10:34:54.117Z,100.00
2022-09-27T10:37:23.827Z,100.00
2022-09-27T10:40:28.267Z,100.00
2022-09-27T10:42:59.462Z,100.00
2022-09-27T10:45:41.268Z,100.00
2022-09-27T10:48:22.454Z,100.00
2022-09-27T10:51:00.784Z,100.00
2022-09-27T10:53:48.471Z,100.00
2022-09-27T10:56:32.291Z,100.00
2022-09-27T10:59:05.226Z,100.00
2022-09-27T11:01:41.850Z,100.00
2022-09-27T11:04:27.776Z,100.00
2022-09-27T11:07:08.527Z,100.00
2022-09-27T11:09:47.195Z,100.00
2022-09-27T11:12:20.439Z,100.00
2022-09-27T11:15:00.047Z,100.00
2022-09-27T11:17:35.780Z,100.00
2022-09-27T11:20:26.517Z,100.00
2022-09-27T11:23:30.177Z,100.00
2022-09-27T11:26:14.621Z,100.00
2022-09-27T11:28:53.858Z,100.00
2022-09-27T11:32:15.596Z,100.00
2022-09-27T11:35:21.386Z,100.00
2022-09-27T11:37:58.010Z,100.00
2022-09-27T11:40:47.891Z,100.00
2022-09-27T11:43:43.046Z,100.00
2022-09-27T11:46:29.207Z,100.00
2022-09-27T11:49:27.268Z,100.00
2022-09-27T11:52:13.471Z,100.00
2022-09-27T11:54:55.866Z,100.00
2022-09-27T11:57:31.552Z,100.00
2022-09-27T12:00:19.512Z,89.08
2022-09-27T12:03:30.237Z,89.27
2022-09-27T12:06:08.690Z,93.75
2022-09-27T12:09:02.690Z,91.04
2022-09-27T12:11:38.484Z,92.22
2022-09-27T12:14:12.639Z,86.06
2022-09-27T12:16:42.836Z,84.90
2022-09-27T12:19:19.182Z,79.93
2022-09-27T12:22:12.744Z,78.08
2022-09-27T12:24:44.740Z,78.15
2022-09-27T12:27:38.389Z,88.00
2022-09-27T12:30:12.705Z,91.09
2022-09-27T12:32:50.923Z,86.82
2022-09-27T12:35:23.266Z,81.52
2022-09-27T12:38:00.439Z,76.94
2022-09-27T12:40:32.771Z,77.32
2022-09-27T12:43:09.071Z,83.30
2022-09-27T12:46:13.110Z,80.11
2022-09-27T12:48:53.875Z,81.73
2022-09-27T12:51:24.036Z,85.18
2022-09-27T12:54:24.833Z,83.27
2022-09-27T12:57:00.503Z,87.64
2022-09-27T12:59:42.190Z,90.04
2022-09-27T13:03:14.086Z,92.83
2022-09-27T13:06:17.258Z,87.53
2022-09-27T13:09:12.322Z,89.43
2022-09-27T13:11:52.307Z,90.02
2022-09-27T13:14:24.898Z,90.98
2022-09-27T13:16:53.442Z,93.42
2022-09-27T13:19:42.636Z,97.13
2022-09-27T13:22:38.401Z,93.32
2022-09-27T13:25:55.461Z,99.48
2022-09-27T13:29:03.250Z,100.00
2022-09-27T13:32:22.618Z,100.00
2022-09-27T13:35:20.638Z,100.00
2022-09-27T13:37:58.953Z,100.00
2022-09-27T13:40:43.613Z,100.00
2022-09-27T13:43:37.198Z,100.00
2022-09-27T13:46:20.533Z,100.00
2022-09-27T13:48:56.765Z,100.00
2022-09-27T13:51:36.110Z,100.00
2022-09-27T13:54:10.336Z,100.00
2022-09-27T13:56:53.861Z,100.00
2022-09-27T13:59:34.367Z,100.00
2022-09-27T14:02:26.732Z,100.00
2022-09-27T14:05:00.943Z,100.00
2022-09-27T14:07:36.457Z,100.00
2022-09-27T14:10:05.996Z,100.00
2022-09-27T14:12:40.886Z,100.00
2022-09-27T14:15:20.474Z,100.00
2022-09-27T14:17:50.222Z,100.00
2022-09-27T14:20:34.507Z,100.00
2022-09-27T14:23:05.033Z,100.00
2022-09-27T14:25:40.270Z,100.00
2022-09-27T14:28:21.603Z,100.00
2022-09-27T14:31:08.799Z,100.00
2022-09-27T14:33:51.062Z,100.00
2022-09-27T14:36:44.553Z,100.00
2022-09-27T14:39:15.938Z,100.00
2022-09-27T14:41:46.357Z,100.00
2022-09-27T14:44:20.977Z,100.00
2022-09-27T14:47:09.245Z,100.00
2022-09-27T14:49:48.014Z,100.00
2022-09-27T14:52:24.152Z,100.00
2022-09-27T14:55:03.283Z,100.00
2022-09-27T14:57:34.192Z,100.00
2022-09-27T15:00:16.655Z,100.00
2022-09-27T15:02:45.409Z,100.00
2022-09-27T15:05:17.679Z,100.00
2022-09-27T15:07:46.964Z,100.00
2022-09-27T15:10:18.152Z,100.00
2022-09-27T15:12:49.032Z,100.00
2022-09-27T15:15:22.342Z,100.00
2022-09-27T15:17:51.041Z,100.00
2022-09-27T15:20:26.007Z,100.00
2022-09-27T15:22:54.506Z,100.00
2022-09-27T15:25:32.305Z,100.00
2022-09-27T15:28:02.461Z,100.00
2022-09-27T15:30:36.726Z,100.00
2022-09-27T15:33:05.634Z,100.00
2022-09-27T15:35:36.943Z,100.00
2022-09-27T15:38:26.289Z,100.00
2022-09-27T15:41:07.051Z,100.00
2022-09-27T15:43:39.312Z,100.00
2022-09-27T15:46:27.386Z,100.00
2022-09-27T15:49:22.641Z,100.00
2022-09-27T15:51:53.255Z,100.00
2022-09-27T15:54:22.068Z,100.00
2022-09-27T15:56:55.252Z,100.00
2022-09-27T15:59:25.624Z,100.00
2022-09-27T16:01:56.672Z,100.00
2022-09-27T16:04:26.144Z,100.00
2022-09-27T16:06:55.746Z,100.00
2022-09-27T16:09:23.696Z,100.00
2022-09-27T16:11:51.923Z,100.00
2022-09-27T16:14:20.887Z,100.00
2022-09-27T16:16:51.690Z,100.00
2022-09-27T16:19:19.712Z,100.00
2022-09-27T16:21:48.898Z,100.00
2022-09-27T16:24:18.216Z,100.00
2022-09-27T16:26:46.204Z,100.00
2022-09-27T16:29:16.646Z,100.00
2022-09-27T16:31:45.609Z,100.00
2022-09-27T16:34:14.370Z,100.00
2022-09-27T16:36:42.391Z,100.00
2022-09-27T16:39:13.641Z,100.00
2022-09-27T16:41:43.551Z,100.00
2022-09-27T16:44:12.371Z,100.00
2022-09-27T16:46:42.099Z,100.00
2022-09-27T16:49:30.319Z,100.00
2022-09-27T16:52:00.679Z,100.00
2022-09-27T16:54:29.203Z,100.00
2022-09-27T16:56:59.555Z,100.00
2022-09-27T16:59:27.672Z,100.00
2022-09-27T17:01:57.180Z,100.00
2022-09-27T17:04:25.517Z,100.00
2022-09-27T17:06:53.498Z,100.00
2022-09-27T17:09:21.810Z,100.00
2022-09-27T17:11:50.031Z,100.00
2022-09-27T17:14:19.678Z,100.00
2022-09-27T17:16:49.047Z,100.00
2022-09-27T17:19:18.340Z,100.00
2022-09-27T17:21:46.877Z,100.00
2022-09-27T17:24:14.931Z,100.00
2022-09-27T17:26:43.778Z,100.00
2022-09-27T17:29:12.643Z,100.00
2022-09-27T17:31:43.301Z,100.00
2022-09-27T17:34:13.812Z,100.00
2022-09-27T17:36:44.197Z,100.00
2022-09-27T17:39:13.825Z,100.00
2022-09-27T17:41:42.311Z,100.00
2022-09-27T17:44:13.653Z,100.00
2022-09-27T17:46:43.241Z,100.00
2022-09-27T17:49:29.314Z,100.00
2022-09-27T17:51:57.639Z,100.00
2022-09-27T17:54:27.855Z,100.00
2022-09-27T17:56:56.267Z,100.00
2022-09-27T17:59:24.235Z,100.00
2022-09-27T18:01:53.598Z,100.00
2022-09-27T18:04:21.742Z,100.00
2022-09-27T18:06:49.928Z,100.00
2022-09-27T18:09:18.714Z,100.00
2022-09-27T18:11:47.161Z,100.00
2022-09-27T18:14:15.284Z,100.00
2022-09-27T18:16:44.155Z,100.00
2022-09-27T18:19:15.837Z,100.00
2022-09-27T18:21:44.116Z,100.00
2022-09-27T18:24:14.007Z,100.00
2022-09-27T18:26:42.390Z,100.00
2022-09-27T18:29:12.692Z,100.00
2022-09-27T18:31:47.390Z,100.00
2022-09-27T18:34:18.181Z,100.00
2022-09-27T18:36:46.884Z,100.00
2022-09-27T18:39:19.006Z,100.00
2022-09-27T18:41:48.576Z,100.00
2022-09-27T18:44:17.478Z,100.00
2022-09-27T18:46:45.793Z,100.00
2022-09-27T18:49:15.329Z,100.00
2022-09-27T18:51:46.932Z,100.00
2022-09-27T18:54:16.983Z,100.00
2022-09-27T18:56:45.143Z,100.00
2022-09-27T18:59:13.327Z,100.00
2022-09-27T19:01:45.054Z,100.00
2022-09-27T19:04:20.472Z,100.00
2022-09-27T19:06:52.890Z,100.00
2022-09-27T19:09:21.102Z,100.00
2022-09-27T19:11:49.246Z,100.00
2022-09-27T19:14:19.768Z,100.00
2022-09-27T19:16:48.518Z,100.00
2022-09-27T19:19:17.203Z,100.00
2022-09-27T19:21:45.446Z,100.00
2022-09-27T19:24:15.874Z,100.00
2022-09-27T19:26:44.078Z,100.00
2022-09-27T19:29:12.867Z,100.00
2022-09-27T19:31:42.935Z,100.00
2022-09-27T19:34:11.776Z,100.00
2022-09-27T19:36:39.996Z,100.00
2022-09-27T19:39:07.967Z,100.00
2022-09-27T19:41:37.502Z,100.00
2022-09-27T19:44:06.662Z,100.00
2022-09-27T19:46:34.660Z,100.00
2022-09-27T19:49:02.743Z,100.00
2022-09-27T19:51:31.146Z,100.00
2022-09-27T19:53:59.186Z,100.00
2022-09-27T19:56:27.229Z,100.00
2022-09-27T19:58:56.542Z,100.00
2022-09-27T20:01:26.144Z,100.00
2022-09-27T20:03:56.663Z,100.00
2022-09-27T20:06:24.789Z,100.00
2022-09-27T20:08:52.854Z,100.00
2022-09-27T20:11:22.222Z,100.00
2022-09-27T20:13:52.551Z,100.00
2022-09-27T20:16:23.893Z,100.00
2022-09-27T20:18:53.531Z,100.00
2022-09-27T20:21:23.574Z,100.00
2022-09-27T20:23:53.285Z,100.00
2022-09-27T20:26:23.146Z,100.00
2022-09-27T20:28:52.895Z,100.00
2022-09-27T20:31:23.961Z,100.00
2022-09-27T20:33:52.524Z,100.00
2022-09-27T20:36:22.437Z,100.00
2022-09-27T20:38:52.321Z,100.00
2022-09-27T20:41:21.460Z,100.00
2022-09-27T20:43:52.442Z,100.00
2022-09-27T20:46:22.804Z,100.00
2022-09-27T20:48:55.101Z,100.00
2022-09-27T20:51:24.040Z,100.00
2022-09-27T20:53:52.633Z,100.00
2022-09-27T20:56:22.445Z,100.00
2022-09-27T20:58:52.767Z,100.00
2022-09-27T21:01:23.457Z,100.00
2022-09-27T21:03:59.727Z,100.00
2022-09-27T21:06:28.505Z,100.00
2022-09-27T21:08:56.794Z,100.00
2022-09-27T21:11:27.229Z,100.00
2022-09-27T21:13:55.700Z,100.00
2022-09-27T21:16:26.728Z,100.00
2022-09-27T21:18:56.567Z,100.00
2022-09-27T21:21:25.750Z,100.00
2022-09-27T21:23:55.445Z,100.00
2022-09-27T21:26:23.769Z,100.00
2022-09-27T21:28:53.196Z,100.00
2022-09-27T21:31:24.080Z,100.00
2022-09-27T21:33:54.964Z,100.00
2022-09-27T21:36:24.328Z,100.00
2022-09-27T21:38:53.150Z,100.00
2022-09-27T21:41:21.320Z,100.00
2022-09-27T21:43:50.198Z,100.00
2022-09-27T21:46:20.471Z,100.00
2022-09-27T21:48:50.070Z,100.00
2022-09-27T21:51:22.712Z,100.00
2022-09-27T21:53:52.317Z,100.00
2022-09-27T21:56:21.458Z,100.00
2022-09-27T21:58:52.227Z,100.00
2022-09-27T22:01:22.648Z,100.00
2022-09-27T22:03:55.332Z,100.00
2022-09-27T22:06:26.748Z,100.00
2022-09-27T22:08:56.070Z,100.00
2022-09-27T22:11:26.790Z,100.00
2022-09-27T22:13:57.161Z,100.00
2022-09-27T22:16:26.747Z,100.00
2022-09-27T22:18:56.348Z,100.00
2022-09-27T22:21:27.686Z,100.00
2022-09-27T22:23:56.529Z,100.00
2022-09-27T22:26:25.966Z,100.00
2022-09-27T22:28:54.395Z,100.00
2022-09-27T22:31:23.385Z,100.00
2022-09-27T22:33:53.674Z,100.00
2022-09-27T22:36:22.525Z,100.00
2022-09-27T22:38:52.509Z,100.00
2022-09-27T22:41:21.166Z,100.00
2022-09-27T22:43:49.417Z,100.00
2022-09-27T22:46:17.454Z,100.00
2022-09-27T22:48:45.533Z,100.00
2022-09-27T22:51:13.794Z,100.00
2022-09-27T22:53:41.859Z,100.00
2022-09-27T22:56:14.359Z,100.00
2022-09-27T22:58:43.898Z,100.00
2022-09-27T23:01:14.443Z,100.00
2022-09-27T23:03:43.242Z,100.00
2022-09-27T23:06:11.552Z,100.00
2022-09-27T23:08:39.932Z,100.00
2022-09-27T23:11:15.050Z,100.00
2022-09-27T23:13:44.534Z,100.00
2022-09-27T23:16:14.064Z,100.00
2022-09-27T23:18:42.465Z,100.00
2022-09-27T23:21:12.815Z,100.00
2022-09-27T23:23:43.580Z,100.00
2022-09-27T23:26:14.534Z,100.00
2022-09-27T23:28:42.565Z,100.00
2022-09-27T23:31:13.375Z,100.00
2022-09-27T23:33:43.061Z,100.00
2022-09-27T23:36:14.920Z,100.00
2022-09-27T23:38:45.363Z,100.00
2022-09-27T23:41:15.526Z,100.00
2022-09-27T23:43:44.343Z,100.00
2022-09-27T23:46:12.832Z,100.00
2022-09-27T23:48:41.710Z,100.00
2022-09-27T23:51:11.646Z,100.00
2022-09-27T23:53:39.909Z,100.00
2022-09-27T23:56:09.573Z,100.00
2022-09-27T23:58:39.627Z,100.00
